Aviation Digital Data Service (ADDS)

Output produced by METARs form (0637 UTC 27 March 2017)
found at http://www.aviationweather.gov/adds/metars/
 
UNAA 270600Z 00000MPS CAVOK 07/M02 Q1014 R02/090065 NOSIG RMK QFE738
TAF UNAA 270459Z 2706/2806 25003G10MPS 9999 SCT030 
     BECMG 2710/2712 SCT025CB 
     TEMPO 2712/2716 3000 -SHSNRA 
     TEMPO 2716/2724 2000 SHSN BKN015CB
       
URWA 270600Z 03002MPS 360V060 9999 -RA SCT010 OVC020 03/01 Q1013 R09/290050 NOSIG RMK QFE762/1016
TAF URWA 270500Z 2706/2715 05003G08MPS 3100 -SHRA BR BKN011 BKN020CB 
     TEMPO 2706/2712 1000 SHSNRA BKN003 BKN020CB
       
USCC 270600Z 22007MPS CAVOK 01/M06 Q1006 R27/000060 NOSIG RMK QFE735
TAF USCC 270500Z 2706/2806 21006MPS 9999 SCT030 
     TEMPO 2706/2715 22012MPS BKN010
       
UNBB 270600Z 21008MPS 9999 -SNRA BKN015 02/M01 Q1015 R24/190047 NOSIG RMK QFE739
TAF UNBB 270500Z 2706/2806 23006G11MPS 9999 BKN020 
     TEMPO 2706/2718 21009G14MPS 1200 SHRASN SCT002 BKN005 BKN010CB 
     TEMPO 2718/2803 20006MPS 1200 SHSN BR SCT002 BKN005CB
       
UWKE 270600Z 18006G11MPS 9999 FEW026 M00/M05 Q1000 R21/120060 NOSIG RMK QFE733/0977
TAF UWKE 270445Z 2706/2806 20006G12MPS 9999 BKN010 
     TEMPO 2706/2709 17007G14MPS 2100 -SHSN BKN005 SCT015CB 
     BECMG 2709/2710 3000 -SN OVC007 
     TEMPO 2709/2718 19009G16MPS 0700 +SHSN BKN003 BKN010CB 
     TEMPO 2718/2805 19009G16MPS 0500 +SHSNRA BKN002 BKN010CB
       
UUOB 270600Z 25009G14MPS 1000 R29/1000U SHSN BKN006CB M01/M01 Q1003 R29/190057 NOSIG
TAF COR UUOB 270500Z 2706/2715 26009G14MPS 3000 -SHSN BR BKN007 BKN015CB 
     TEMPO 2706/2712 25011G16MPS 1200 SHSN BR OVC004CB
       
URMO 270600Z 30002MPS 6000 BKN006 OVC015 05/05 Q1011 R09/010070 NOSIG RMK MT OBSC QFE715/0953
TAF URMO 270500Z 2706/2715 28005MPS 5000 BR OVC015 
     TEMPO 2706/2709 1100 -DZ BR BKN004 OVC007 
     TEMPO 2709/2715 2100 -SHRA BR BKN004 BKN015CB OVC100
       
TAF ULPB 270458Z 2706/2715 31006G13MPS 6000 BKN010 BKN020 
     TEMPO 2706/2715 32008G16MPS 1200 SHSNRA BKN006 BKN017CB
       
USPP 270600Z 23008MPS 9999 BKN035 00/M05 Q0999 R21/090060 NOSIG RMK QFE738
TAF USPP 270455Z 2706/2806 21007MPS 9999 BKN015 BKN100 
     TEMPO 2706/2712 21013MPS 2000 SHSN SCT007 BKN020CB 
     BECMG 2800/2802 3100 -SNRA OVC007
       
UIBB 270600Z 34002MPS 9999 SCT037 02/M07 Q1018 R30/912060 NOSIG RMK QFE720/0960
TAF UIBB 270500Z 2706/2806 19003MPS 9999 SCT020CB
       
UUBP 270600Z 31011MPS 9999 BKN019CB 03/M00 Q1000 R34/190060 NOSIG RMK QFE733/0977
TAF UUBP 270449Z 2706/2715 28007G12MPS 9999 SCT020 
     TEMPO 2706/2708 SCT015 BKN030
       
UWKS 270600Z 21010G15MPS 9999 BKN037 00/M06 Q0993 R24/010060 TEMPO 20010G17MPS RMK QFE731
TAF UWKS 270455Z 2706/2715 20008G14MPS 3100 -SHSNRA BKN012 SCT015CB 
     TEMPO 2706/2714 18010G16MPS 1000 SHSNRA VV003
       
UUOO 270600Z 23006MPS 0900 0750SE R30/1000D +SN VV003 M00/M01 Q0997 R30/290150 NOSIG RMK QBB090 QFE735
TAF UUOO 270500Z 2706/2715 25010MPS 1800 SN BR BKN002 
     TEMPO 2706/2712 25011G16MPS 0700 +SN
       
UEEE 270600Z 06001MPS CAVOK 02/M06 Q1009 R23L/490150 NOSIG RMK QFE748
TAF UEEE 270500Z 2706/2812 21004G09MPS CAVOK 
     TEMPO 2706/2712 14006G12MPS
       
UUDD 270600Z 31009MPS 1900 R32L/P2000D R32R/1800U SHSN BKN006 BKN020CB 01/M00 Q0991 R88/550294 TEMPO 0700 +SHSN
TAF UUDD 270459Z 2706/2812 30011MPS 6000 BKN010 TX04/2711Z TNM00/2803Z 
     TEMPO 2706/2709 0800 +SHSN SCT004 BKN010CB 
     BECMG 2718/2720 2000 SNRA OVC006 
     TEMPO 2721/2812 0700 +SHSNRA SCT003 BKN012CB
       
URWW 270600Z 24006MPS 9999 SCT003 BKN023CB 02/02 Q1008 R24/290060 TEMPO 1000 SHSN BKN003 SCT020CB RMK OBST OBSC
TAF URWW 270459Z 2706/2715 22009G15MPS 3100 -SHSNRA BKN007 SCT020CB BKN100 
     TEMPO 2706/2715 25011G17MPS 1000 SHSNRA BKN003 SCT020CB BKN100
       
UHBB 270600Z 33003MPS 9999 SCT033CB 06/M10 Q1014 R36/090060 NOSIG RMK QFE743/0991
TAF UHBB 270440Z 2706/2806 36003MPS 9999 BKN030CB 
     BECMG 2710/2712 20003MPS SCT030
       
UIII 270600Z 08003MPS 040V120 CAVOK 08/M03 Q1018 R12/60D NOSIG RMK QFE721/0962
TAF UIII 270500Z 2706/2806 VRB01MPS CAVOK
       
UIAA 270600Z 29004MPS 9999 NSC 08/M13 Q1013 R29/70D NOSIG RMK QFE701
TAF UIAA 270500Z 2706/2806 29007G14MPS 9999 SCT030CB
       
UWKD 270600Z 18005G10MPS CAVOK 00/M04 Q0996 R11/60D NOSIG RMK QFE737/0983
TAF UWKD 270455Z 2706/2806 17007G12MPS 9999 OVC020 TX01/2711Z TNM01/2706Z 
     FM270900 17007G12MPS 3000 -SNRA OVC007 
     TEMPO 2709/2715 19010G15MPS 0700 +SHSNRA BKN003 BKN010CB 
     TEMPO 2715/2803 1000 SHSNRA BKN003 BKN010CB
       
UNEE 270600Z 14002MPS 9999 NSC 02/M03 Q1013 R23/811060 NOSIG RMK QFE737
TAF UNEE 270500Z 2706/2806 15003MPS 9999 SCT020CB 
     TEMPO 2706/2712 1500 SHRASN BKN011CB 
     TEMPO 2712/2803 22005MPS 1200 SHSN BKN011CB
       
USCC 270600Z 22007MPS CAVOK 01/M06 Q1006 R27/000060 NOSIG RMK QFE735
TAF USCC 270500Z 2706/2806 21006MPS 9999 SCT030 
     TEMPO 2706/2715 22012MPS BKN010
       
USCM 270600Z 22005MPS 9999 BKN039 M02/M07 Q1007 R19/090060 NOSIG RMK QFE718
TAF USCM 270500Z 2706/2715 22005MPS 9999 BKN020 
     TEMPO 2706/2715 24008MPS 3000 -SN BKN007
       
USHH 270600Z 20007MPS 9999 FEW030CB 02/M06 Q0999 R24/010060 TEMPO 21010G15MPS 2000 SHSNRA BKN005CB RMK QFE745
TAF USHH 270457Z 2706/2806 22009G16MPS 3000 -SHSN BKN015CB 
     TEMPO 2706/2718 1000 SHSN BKN004 BKN010CB 
     TEMPO 2718/2803 2000 BR SCT007CB
       
USNN 270600Z 17005MPS CAVOK 01/M03 Q1004 R21/0///65 NOSIG RMK QFE748
TAF USNN 270500Z 2706/2806 18006G12MPS 9999 OVC020 
     TEMPO 2706/2709 2000 SHSNRA BKN007 SCT017CB 
     TEMPO 2709/2715 19007G13MPS 1500 SHSNRA BKN007 SCT015CB
       
USPP 270600Z 23008MPS 9999 BKN035 00/M05 Q0999 R21/090060 NOSIG RMK QFE738
TAF USPP 270455Z 2706/2806 21007MPS 9999 BKN015 BKN100 
     TEMPO 2706/2712 21013MPS 2000 SHSN SCT007 BKN020CB 
     BECMG 2800/2802 3100 -SNRA OVC007
       
USRR 270600Z 19004MPS 160V220 3300 -SHSN BKN009 BKN017CB M01/M01 Q1002 RESHSN R07/190050 TEMPO 1200 SHSN RMK OBST OBSC QFE746
TAF USRR 272255Z 2703/2803 17006G11MPS 4000 -SHSN BKN007 BKN015CB 
     TEMPO 2703/2712 1200 SHSN BKN005 BKN015CB
       
USSS 270600Z 22008MPS 9999 SCT040 01/M06 Q1003 R26R/190045 NOSIG RMK QFE732/0976
TAF USSS 270459Z 2706/2806 21007MPS 9999 BKN010 BKN020CB 
     TEMPO 2706/2718 23013MPS
       
USTR 270600Z 22006MPS 9999 FEW040 02/M05 Q1005 R12/CLRD65 NOSIG RMK QFE745/0993
TAF USTR 270455Z 2706/2806 22008MPS 9999 SCT015CB 
     TEMPO 2706/2715 23012MPS 1000 SHSNRA BKN005 BKN015CB 
     FM271500 18005MPS 4000 BR SCT010
       
UHSS 270600Z 19005MPS 9999 SCT033CB M00/M01 Q1013 R19/CLRD70 NOSIG RMK MT OBSC QFE758/1011
TAF UHSS 270500Z 2706/2812 18003MPS 1400 BR BKN004 BKN020CB OVC100 
     TEMPO 2706/2715 0400 FZFG BKN002 BKN020CB 
     BECMG 2715/2718 0400 FZFG BKN002 BKN020CB 
     BECMG 2723/2801 9999 NSW BKN020CB OVC100 
     BECMG 2802/2804 27004MPS
       
UMKK 270600Z 29002MPS 260V330 CAVOK 06/03 Q1021 R24/60D NOSIG RMK QFE764/1019
TAF UMKK 270455Z 2706/2806 32007MPS CAVOK 
     BECMG 2710/2712 27005G10MPS SCT010 
     TEMPO 2712/2718 24007G12MPS BKN005 
     FM271800 27007G12MPS 2000 BR BKN004 
     TEMPO 2718/2806 31008G13MPS 1000 BR BKN002
       
UHWW 270600Z 01005MPS 9999 NSC 09/M08 Q1015 R07R/0///70 NOSIG RMK QFE760
TAF UHWW 270455Z 2706/2806 33003MPS 9999 SCT030CB 
     TEMPO 2706/2712 5000 -SHRA BKN015CB 
     BECMG 2712/2714 VRB01MPS 
     BECMG 2800/2802 26003MPS
       
USSS 270600Z 22008MPS 9999 SCT040 01/M06 Q1003 R26R/190045 NOSIG RMK QFE732/0976
TAF USSS 270459Z 2706/2806 21007MPS 9999 BKN010 BKN020CB 
     TEMPO 2706/2718 23013MPS
       
UNKL 270600Z 08002MPS 040V130 7000 NSC 03/M03 Q1016 R29/CLRD65 NOSIG RMK QFE736
TAF UNKL 270453Z 2706/2806 09003MPS 4000 FU NSC 
     BECMG 2710/2712 9999 NSW 
     TEMPO 2712/2724 3000 BR
       
UUOK 270600Z 29009G14MPS 3000 -SN OVC008 01/00 Q0999 R30/590235 NOSIG RMK QFE731/0975
TAF UUOK 270456Z 2706/2715 25009G14MPS 2100 -SN BR OVC005 
     TEMPO 2706/2712 29011G16MPS 1000 SNRA OVC003
       
UWWW 270600Z 20006MPS 170V230 CAVOK 02/M04 Q1003 R23/CLRD60 NOSIG RMK QFE741/0988
TAF UWWW 270500Z 2706/2806 20007G13MPS 9999 BKN011 BKN100 TX06/2711Z TNM00/2803Z 
     TEMPO 2706/2712 22009G16MPS 
     FM271200 21007G14MPS 3100 -RASN BKN011 OVC100 
     TEMPO 2715/2806 22008G15MPS 0800 +SHSNRA OVC003 SCT010CB
       
USCM 270600Z 22005MPS 9999 BKN039 M02/M07 Q1007 R19/090060 NOSIG RMK QFE718
TAF USCM 270500Z 2706/2715 22005MPS 9999 BKN020 
     TEMPO 2706/2715 24008MPS 3000 -SN BKN007
       
URMM 270600Z 28003MPS 9999 -RA BKN018 OVC041 05/05 Q1012 R12/290050 NOSIG RMK MT OBSC QFE731/0975
TAF URMM 270458Z 2706/2806 29003G08MPS 5000 BR BKN004 BKN015CB TX06/2712Z TN01/2802Z 
     TEMPO 2706/2710 3100 -SHRA BR BKN002 BKN015CB 
     TEMPO 2710/2806 29005G12MPS 3100 -SHRA BR BKN011 BKN020CB
       
USCC 270600Z 22007MPS CAVOK 01/M06 Q1006 R27/000060 NOSIG RMK QFE735
TAF USCC 270500Z 2706/2806 21006MPS 9999 SCT030 
     TEMPO 2706/2715 22012MPS BKN010
       
USCM 270600Z 22005MPS 9999 BKN039 M02/M07 Q1007 R19/090060 NOSIG RMK QFE718
TAF USCM 270500Z 2706/2715 22005MPS 9999 BKN020 
     TEMPO 2706/2715 24008MPS 3000 -SN BKN007
       
USHH 270600Z 20007MPS 9999 FEW030CB 02/M06 Q0999 R24/010060 TEMPO 21010G15MPS 2000 SHSNRA BKN005CB RMK QFE745
TAF USHH 270457Z 2706/2806 22009G16MPS 3000 -SHSN BKN015CB 
     TEMPO 2706/2718 1000 SHSN BKN004 BKN010CB 
     TEMPO 2718/2803 2000 BR SCT007CB
       
USNN 270600Z 17005MPS CAVOK 01/M03 Q1004 R21/0///65 NOSIG RMK QFE748
TAF USNN 270500Z 2706/2806 18006G12MPS 9999 OVC020 
     TEMPO 2706/2709 2000 SHSNRA BKN007 SCT017CB 
     TEMPO 2709/2715 19007G13MPS 1500 SHSNRA BKN007 SCT015CB
       
USPP 270600Z 23008MPS 9999 BKN035 00/M05 Q0999 R21/090060 NOSIG RMK QFE738
TAF USPP 270455Z 2706/2806 21007MPS 9999 BKN015 BKN100 
     TEMPO 2706/2712 21013MPS 2000 SHSN SCT007 BKN020CB 
     BECMG 2800/2802 3100 -SNRA OVC007
       
USRR 270600Z 19004MPS 160V220 3300 -SHSN BKN009 BKN017CB M01/M01 Q1002 RESHSN R07/190050 TEMPO 1200 SHSN RMK OBST OBSC QFE746
TAF USRR 272255Z 2703/2803 17006G11MPS 4000 -SHSN BKN007 BKN015CB 
     TEMPO 2703/2712 1200 SHSN BKN005 BKN015CB
       
USSS 270600Z 22008MPS 9999 SCT040 01/M06 Q1003 R26R/190045 NOSIG RMK QFE732/0976
TAF USSS 270459Z 2706/2806 21007MPS 9999 BKN010 BKN020CB 
     TEMPO 2706/2718 23013MPS
       
USTR 270600Z 22006MPS 9999 FEW040 02/M05 Q1005 R12/CLRD65 NOSIG RMK QFE745/0993
TAF USTR 270455Z 2706/2806 22008MPS 9999 SCT015CB 
     TEMPO 2706/2715 23012MPS 1000 SHSNRA BKN005 BKN015CB 
     FM271500 18005MPS 4000 BR SCT010
       
UIUU 270600Z 29007MPS 260V340 9999 FEW046 08/M06 Q1019 R26/60D NOSIG RMK QFE719/0959
TAF UIUU 270500Z 2706/2806 29007MPS 9999 SCT040CB 
     BECMG 2712/2714 03003MPS
       
ULMM 270600Z 29006MPS 9999 DRSN NSC M02/M09 Q0991 R31/450256 NOSIG RMK QFE736
TAF ULMM 270455Z 2706/2806 31005G10MPS 6000 BKN013CB 
     TEMPO 2706/2806 28010G17MPS 0500 +SHSN BLSN VV004
       
URMN 270600Z 04001MPS 2000 BR OVC004 04/04 Q1011 R24/210155 NOSIG RMK MT OBSC OBST OBSC QFE722
TAF COR URMN 270500Z 2706/2715 02003MPS 5000 -SHRA BR BKN006 BKN020CB 
     TEMPO 2706/2712 0500 FG BKN002 BKN020CB
       
USNN 270600Z 17005MPS CAVOK 01/M03 Q1004 R21/0///65 NOSIG RMK QFE748
TAF USNN 270500Z 2706/2806 18006G12MPS 9999 OVC020 
     TEMPO 2706/2709 2000 SHSNRA BKN007 SCT017CB 
     TEMPO 2709/2715 19007G13MPS 1500 SHSNRA BKN007 SCT015CB
       
UHHH 270600Z 01003MPS 340V040 9999 SCT026CB 05/M06 Q1013 R23L/090060 NOSIG RMK QFE754/1005
TAF UHHH 270447Z 2706/2812 05003MPS 9999 SCT020CB 
     TEMPO 2706/2712 3000 -SHSNRA SCT010 
     FM271600 23003MPS 2000 BR SCT006 
     FM280100 25003MPS 9999 SCT020CB
       
UWOO 270600Z 21004MPS CAVOK M01/M05 Q1011 R08/CLRD60 NOSIG RMK QFE747/0997
TAF UWOO 270500Z 2706/2806 19006MPS 3000 BR OVC007 TX01/2711Z TNM05/2803Z 
     TEMPO 2706/2806 20007G12MPS 1000 RASN BR OVC004
       
UWOR 270600Z 00000MPS 9999 OVC035 M00/M06 Q1010 R25/CLRD60 NOSIG RMK QFE734/0979
TAF UWOR 270453Z 2706/2715 24003G08MPS 4000 -SN OVC020 
     TEMPO 2706/2713 20004G10MPS 2100 -SHSN BR BKN011CB
       
URKK 270600Z 22003MPS 9000 -SHRA SCT007 BKN042CB 04/03 Q1015 R23C/290050Z TEMPO 3100 -SHRA BR BKN004 BKN020CB RMK QFE758
TAF URKK 270455Z 2706/2806 27005G10MPS 9999 BKN011 BKN020CB 
     TEMPO 2706/2715 31008G13MPS 3100 -SHRA BKN005 BKN020CB
       
ULOO 270600Z 31008MPS P5000 NSC 03/M02 Q1008 R19/190060 NOSIG RMK QFE752
TAF ULOO 270459Z 2706/2715 31007G13MPS 6000 BKN015 
     TEMPO 2706/2709 32009G16MPS 2500 -SHRASN BKN007 BKN020CB 
     TEMPO 2709/2715 29010G18MPS 2500 -SHRA BKN007 BKN020CB
       
ULLI 270600Z 30009MPS 9999 SCT036 02/M04 Q1003 R88/090060 NOSIG
TAF ULLI 270455Z 2706/2806 30008G14MPS 6000 BKN010 BKN020 
     TEMPO 2706/2709 31012G18MPS 
     BECMG 2709/2711 26007G13MPS 
     TEMPO 2711/2721 26010G18MPS 1500 SHSNRA BKN005 BKN015CB 
     TEMPO 2721/2806 29009G16MPS 2100 -SHSNRA BKN007 BKN015CB
       
USTR 270600Z 22006MPS 9999 FEW040 02/M05 Q1005 R12/CLRD65 NOSIG RMK QFE745/0993
TAF USTR 270455Z 2706/2806 22008MPS 9999 SCT015CB 
     TEMPO 2706/2715 23012MPS 1000 SHSNRA BKN005 BKN015CB 
     FM271500 18005MPS 4000 BR SCT010
       
URRR 270600Z 27004MPS 230V300 7000 SCT018 BKN/// 05/02 Q1011 R22/290052 NOSIG RMK QFE751/1001
TAF URRR 270457Z 2706/2806 27009G16MPS 9999 SCT011 BKN020CB 
     TEMPO 2706/2718 28013G18MPS 3100 -SHRA BR SCT005 BKN020CB 
     BECMG 2718/2720 28006G13MPS 
     TEMPO 2718/2806 3100 BR SCT007 SCT020CB
       
UUEE 270600Z 31010G15MPS 4500 -SHSN BKN009 BKN020CB 01/M00 Q0992 R24R/590330 R24L/590330 TEMPO 1000 SN
TAF UUEE 270459Z 2706/2806 32008G15MPS 4000 -SNRA OVC007 TX01/2712Z TNM01/2803Z 
     TEMPO 2706/2718 1000 SHSN OVC004 SCT010CB 
     TEMPO 2718/2806 25007G12MPS 0500 +SHSN OVC003 BKN010CB
       
URMT 270600Z 32004MPS 9999 SCT006 BKN016CB 01/01 Q1011 R25/290250 NOSIG RMK QFE720
TAF COR URMT 270500Z 2706/2715 30004G09MPS 3100 -SHRA BR BKN009 BKN020CB 
     TEMPO 2706/2715 0800 -SHRA FG BKN002 BKN020CB
       
URSS 270600Z 03002MPS 9999 -SHRA FEW015 OVC036CB 08/07 Q1015 R02/210250 R06/210250 NOSIG RMK R06/06003MPS MT OBSC QFE760
TAF AMD URSS 270525Z 2706/2806 17005G10MPS 5000 -SHRA BKN010 BKN020CB OVC100 
     TEMPO 2706/2717 VRB07G12MPS 2100 -TSRA BR BKN006 BKN020CB OVC100 
     BECMG 2717/2719 29006G11MPS 
     TEMPO 2717/2723 VRB07G12MPS 2100 -TSRA BR BKN005 BKN020CB OVC100 
     FM272300 05006MPS 9999 SCT030CB BKN100 
     TEMPO 2723/2806 -SHRA
       
UHMM 270600Z 31001MPS 9999 NSC M01/M15 Q1011 R10/70D NOSIG RMK QFE743
TAF COR UHMM 270441Z 2706/2812 29003MPS 9999 NSC
       
UWGG 270600Z 19006MPS 3400 -SN BKN011 00/M02 Q0989 R18R/290040 TEMPO 1000 SHSN VV004 RMK QFE735
TAF UWGG 270459Z 2706/2806 20005G12MPS 2500 -SHSN OVC011 BKN015CB TX03/2712Z TNM00/2803Z 
     TEMPO 2706/2712 1000 SHRASN VV004 
     FM271200 30006G13MPS 4000 -SHSN BKN011 SCT015CB 
     TEMPO 2712/2806 32007G15MPS 1500 SHSN OVC006 BKN012CB
       
USRR 270600Z 19004MPS 160V220 3300 -SHSN BKN009 BKN017CB M01/M01 Q1002 RESHSN R07/190050 TEMPO 1200 SHSN RMK OBST OBSC QFE746
TAF USRR 272255Z 2703/2803 17006G11MPS 4000 -SHSN BKN007 BKN015CB 
     TEMPO 2703/2712 1200 SHSN BKN005 BKN015CB
       
UUYY 270600Z 17005MPS 9000 -SN BKN020 M01/M05 Q0986 R19/09//61 TEMPO 2000 SHSN BKN015CB RMK QFE731/0975
TAF UUYY 270500Z 2706/2806 18005MPS 4000 -SN BKN011 
     TEMPO 2706/2709 18011MPS 1000 SHSN BKN005 BKN015CB 
     FM270900 18005G10MPS 3100 -SHSN BKN007 BKN015CB 
     TEMPO 2709/2806 0700 +SHSN BKN003 BKN010CB 
     BECMG 2721/2723 24003G08MPS
       
ULAA 270600Z 34004MPS 310V020 9999 OVC005CB M01/M01 Q0986 R26/590337 TEMPO 0700 +SHSN BKN003CB RMK QBB170 QFE738/0984
TAF ULAA 270459Z 2706/2806 35004G09MPS 6000 BKN012 BKN070 
     TEMPO 2706/2712 01006G12MPS 0700 +SHSN BKN003 BKN011CB 
     FM271200 35006G11MPS 3100 -SHSN BKN011 BKN015CB 
     TEMPO 2712/2806 36009G14MPS 0500 +SHSN BLSN BKN002 BKN011CB
       
UEEE 270600Z 06001MPS CAVOK 02/M06 Q1009 R23L/490150 NOSIG RMK QFE748
TAF UEEE 270500Z 2706/2812 21004G09MPS CAVOK 
     TEMPO 2706/2712 14006G12MPS
       
UNNT 270600Z 19004MPS 5000 BR OVC004 02/01 Q1012 R25/290150 R34/290150 NOSIG RMK QBB130 QFE749/0999
TAF AMD UNNT 270612Z 2706/2806 19006MPS 5000 -SHSNRA BR BKN005 BKN010CB 
     TEMPO 2706/2718 24005MPS 0600 FG BKN002 BKN010CB 
     FM271800 19006G12MPS 9999 BKN011
       
UNOO 270600Z 21005MPS 8000 BKN009 BKN033CB 00/M01 Q1013 R25/CLRD60 NOSIG RMK QFE751
TAF UNOO 270455Z 2706/2806 19007MPS 6000 BKN007 BKN020CB 
     TEMPO 2706/2712 2100 -SHSNRA BR 
     BECMG 2712/2715 19007G12MPS 
     TEMPO 2712/2803 1000 SHRASN BLSN BKN005 BKN020CB
       
UWSS 270600Z 17003MPS CAVOK 02/M04 Q1004 R12/010095 NOSIG RMK QFE741
TAF UWSS 270500Z 2706/2715 18007MPS 5000 -SNRA BR OVC012 
     TEMPO 2706/2715 21011MPS 0700 +SHSNRA OVC007 BKN020CB
       
UUDL 270600Z 30004MPS 7000 -SNRA OVC006 01/M00 Q0988 R23/290250 TEMPO 1200 SHSNRA BKN010CB RMK QFE733
TAF UUDL 270440Z 2705/2806 28007MPS 4000 -SHSNRA BKN008 BKN015CB 
     TEMPO 2705/2718 30009G14MPS 1200 SHSNRA SCT005 BKN010CB
       
UWUU 270600Z 19008MPS 9999 BKN043 01/M03 Q1006 R14R/0///60 NOSIG RMK QFE744/0992
TAF UWUU 270457Z 2706/2806 19007G12MPS 6000 -SN BKN015 OVC100 
     TEMPO 2706/2724 17009G14MPS 3100 -SHSN BKN011CB 
     BECMG 2800/2802 2100 -SN OVC007 SCT015CB 
     TEMPO 2800/2806 17010G16MPS 0500 +SHSN BKN004 BKN010CB
       
UHMA 270600Z 36004MPS 9999 BKN038 OVC080 M12/M13 Q1017 R88/CLRD60 NOSIG RMK QFE759/1012
TAF UHMA 270448Z 2706/2806 35005MPS 9999 SCT007 BKN030 
     TEMPO 2706/2806 VRB01MPS 1000 SN BR BKN005 BKN020
       
URML 270600Z 12003MPS 090V150 0900 0800SE R14/0900U FG VV002 06/05 Q1011 R14/01//70 NOSIG RMK QBB080 MT OBSC QFE758/1011
TAF URML 270500Z 2706/2715 09003G08MPS 1200 BR BKN003 
     TEMPO 2706/2709 0300 FG BKN002
       
URKA 270600Z 04003MPS 360V070 9999 SCT012 06/04 Q1015 R04/190065 RMK QFE757/1010
TAF URKA 270456Z 2706/2806 04003G08MPS 5000 BR BKN015 
     TEMPO 2706/2709 27005G10MPS 3100 -RA BR BKN011 
     FM270900 32009G14MPS 9999 BKN020CB 
     TEMPO 2709/2718 3100 -SHRA BKN011 BKN020CB
       
UUWW 270600Z 31007MPS 1900 R24/1800D SHSN BKN006 BKN018CB 01/M00 Q0992 R24/510250 TEMPO 0700 +SHSN
TAF UUWW 270457Z 2706/2806 32010G17MPS 2100 -SN BKN007 TX02/2712Z TNM01/2803Z 
     TEMPO 2706/2712 32020MPS 0600 +SHSN BKN003 SCT010CB 
     FM271200 30005G12MPS 6000 BKN010 
     TEMPO 2712/2720 1100 SHSN SCT005 SCT015CB 
     FM272000 24005G11MPS 2000 SN OVC005 
     TEMPO 2720/2803 0700 +SHSN BKN003 BKN010CB
       
UWLW 270600Z 18006MPS 8000 NSC 02/M04 Q1000 R20/CLRD60 NOSIG RMK QFE744
TAF UWLW 270445Z 2706/2806 18005G12MPS 5000 -RASN BR BKN011 
     TEMPO 2709/2806 22015MPS 0800 +SHRASN BKN002 BKN015CB
       
UEEE 270600Z 06001MPS CAVOK 02/M06 Q1009 R23L/490150 NOSIG RMK QFE748
TAF UEEE 270500Z 2706/2812 21004G09MPS CAVOK 
     TEMPO 2706/2712 14006G12MPS
       
UHPP 270600Z 15004MPS 9999 SCT040CB 02/M05 Q1006 R34L/CLRD70 NOSIG RMK MT OBSC QFE751/1001
TAF UHPP 270434Z 2706/2812 35003G08MPS 9999 BKN040CB 
     TEMPO 2706/2812 18003G08MPS 3100 -SHSNRA BKN011 OVC015CB